createdAt,value
2018-05-12T00:00:24.080Z,0
2018-05-12T00:01:26.076Z,0
2018-05-12T00:02:28.075Z,0
2018-05-12T00:03:30.069Z,0
2018-05-12T00:04:32.073Z,0
2018-05-12T00:05:34.355Z,0
2018-05-12T00:06:36.360Z,0
2018-05-12T00:07:38.354Z,0
2018-05-12T00:08:40.341Z,0
2018-05-12T00:09:42.334Z,0
2018-05-12T00:10:44.325Z,0
2018-05-12T00:11:46.331Z,0
2018-05-12T00:12:48.704Z,0
2018-05-12T00:13:50.720Z,0
2018-05-12T00:14:53.037Z,0
2018-05-12T00:15:55.015Z,0
2018-05-12T00:16:57.009Z,0
2018-05-12T00:17:59.009Z,0
2018-05-12T00:19:01.288Z,0
2018-05-12T00:20:03.566Z,0
2018-05-12T00:21:05.862Z,0
2018-05-12T00:22:08.142Z,0
2018-05-12T00:23:10.803Z,0
2018-05-12T00:24:13.184Z,0
2018-05-12T00:25:15.184Z,0
2018-05-12T00:26:17.181Z,0
2018-05-12T00:27:19.178Z,0
2018-05-12T00:28:21.171Z,0
2018-05-12T00:29:23.449Z,0
2018-05-12T00:30:25.453Z,0
2018-05-12T00:31:27.443Z,0
2018-05-12T00:32:29.446Z,0
2018-05-12T00:33:31.445Z,0
2018-05-12T00:34:33.452Z,0
2018-05-12T00:35:35.452Z,0
2018-05-12T00:36:37.451Z,0
2018-05-12T00:37:39.446Z,0
2018-05-12T00:38:41.446Z,0
2018-05-12T00:39:43.823Z,0
2018-05-12T00:40:45.825Z,0
2018-05-12T00:41:48.114Z,0
2018-05-12T00:42:50.117Z,0
2018-05-12T00:43:52.109Z,0
2018-05-12T00:44:54.141Z,0
2018-05-12T00:45:56.415Z,0
2018-05-12T00:46:58.700Z,0
2018-05-12T00:48:00.683Z,0
2018-05-12T00:49:02.681Z,0
2018-05-12T00:50:04.675Z,0
2018-05-12T00:51:06.669Z,0
2018-05-12T00:52:08.661Z,0
2018-05-12T00:53:10.654Z,0
2018-05-12T00:54:12.658Z,0
2018-05-12T00:55:14.654Z,0
2018-05-12T00:56:16.640Z,0
2018-05-12T00:57:18.650Z,0
2018-05-12T00:58:20.646Z,0
2018-05-12T00:59:22.637Z,0
2018-05-12T01:00:25.402Z,0
2018-05-12T01:01:27.403Z,0
2018-05-12T01:02:29.400Z,0
2018-05-12T01:03:31.397Z,0
2018-05-12T01:04:33.392Z,0
2018-05-12T01:05:35.673Z,0
2018-05-12T01:06:37.661Z,0
2018-05-12T01:07:40.064Z,0
2018-05-12T01:08:42.065Z,0
2018-05-12T01:09:44.351Z,0
2018-05-12T01:10:46.342Z,0
2018-05-12T01:11:48.718Z,0
2018-05-12T01:12:51.007Z,0
2018-05-12T01:13:52.997Z,0
2018-05-12T01:14:55.370Z,0
2018-05-12T01:15:57.661Z,0
2018-05-12T01:16:59.654Z,0
2018-05-12T01:18:01.648Z,0
2018-05-12T01:19:03.649Z,0
2018-05-12T01:20:05.932Z,0
2018-05-12T01:21:07.926Z,0
2018-05-12T01:22:10.193Z,0
2018-05-12T01:23:12.205Z,0
2018-05-12T01:24:14.205Z,0
2018-05-12T01:25:16.256Z,0
2018-05-12T01:26:18.244Z,0
2018-05-12T01:27:20.257Z,0
2018-05-12T01:28:22.251Z,0
2018-05-12T01:29:24.250Z,0
2018-05-12T01:30:26.924Z,0
2018-05-12T01:31:28.924Z,0
2018-05-12T01:32:31.291Z,0
2018-05-12T01:33:33.284Z,0
2018-05-12T01:34:35.274Z,0
2018-05-12T01:35:37.555Z,0
2018-05-12T01:36:39.812Z,0
2018-05-12T01:37:41.805Z,0
2018-05-12T01:38:43.810Z,0
2018-05-12T01:39:46.104Z,0
2018-05-12T01:40:48.099Z,0
2018-05-12T01:41:50.100Z,0
2018-05-12T01:42:52.099Z,0
2018-05-12T01:43:54.097Z,0
2018-05-12T01:44:56.100Z,0
2018-05-12T01:45:58.085Z,0
2018-05-12T01:47:00.084Z,0
2018-05-12T01:48:03.060Z,0
2018-05-12T01:49:05.059Z,0
2018-05-12T01:50:07.063Z,0
2018-05-12T01:51:09.750Z,0
2018-05-12T01:52:12.031Z,0
2018-05-12T01:53:14.025Z,0
2018-05-12T01:54:16.014Z,0
2018-05-12T01:55:18.025Z,0
2018-05-12T01:56:20.608Z,0
2018-05-12T01:57:22.593Z,0
2018-05-12T01:58:24.593Z,0
2018-05-12T01:59:26.868Z,0
2018-05-12T02:00:28.863Z,0
2018-05-12T02:01:30.860Z,0
2018-05-12T02:02:32.843Z,0
2018-05-12T02:03:34.834Z,0
2018-05-12T02:04:36.832Z,0
2018-05-12T02:05:39.103Z,0
2018-05-12T02:06:41.107Z,0
2018-05-12T02:07:43.101Z,0
2018-05-12T02:08:45.090Z,0
2018-05-12T02:09:47.094Z,0
2018-05-12T02:10:49.466Z,0
2018-05-12T02:11:51.465Z,0
2018-05-12T02:12:53.455Z,0
2018-05-12T02:13:55.448Z,0
2018-05-12T02:14:57.449Z,0
2018-05-12T02:15:59.443Z,0
2018-05-12T02:17:01.425Z,0
2018-05-12T02:18:03.712Z,0
2018-05-12T02:19:05.980Z,0
2018-05-12T02:20:08.254Z,0
2018-05-12T02:21:10.250Z,0
2018-05-12T02:22:12.247Z,0
2018-05-12T02:23:14.632Z,0
2018-05-12T02:24:16.917Z,0
2018-05-12T02:25:19.299Z,0
2018-05-12T02:26:21.283Z,0
2018-05-12T02:27:23.565Z,0
2018-05-12T02:28:26.163Z,0
2018-05-12T02:29:28.158Z,0
2018-05-12T02:30:30.260Z,0
2018-05-12T02:31:32.418Z,0
2018-05-12T02:32:34.413Z,0
2018-05-12T02:33:36.683Z,0
2018-05-12T02:34:38.681Z,0
2018-05-12T02:35:41.340Z,0
2018-05-12T02:36:43.629Z,0
2018-05-12T02:37:45.889Z,0
2018-05-12T02:38:48.477Z,0
2018-05-12T02:39:50.462Z,0
2018-05-12T02:40:52.461Z,0
2018-05-12T02:41:54.448Z,0
2018-05-12T02:42:56.740Z,0
2018-05-12T02:43:58.734Z,0
2018-05-12T02:45:01.704Z,0
2018-05-12T02:46:03.995Z,0
2018-05-12T02:47:05.998Z,0
2018-05-12T02:48:08.273Z,0
2018-05-12T02:49:10.270Z,0
2018-05-12T02:50:12.249Z,0
2018-05-12T02:51:14.250Z,0
2018-05-12T02:52:16.237Z,0
2018-05-12T02:53:18.901Z,0
2018-05-12T02:54:21.184Z,0
2018-05-12T02:55:23.456Z,0
2018-05-12T02:56:25.452Z,0
2018-05-12T02:57:27.436Z,0
2018-05-12T02:58:29.713Z,0
2018-05-12T02:59:31.747Z,0
2018-05-12T03:00:33.742Z,0
2018-05-12T03:01:36.034Z,0
2018-05-12T03:02:38.018Z,0
2018-05-12T03:03:40.016Z,0
2018-05-12T03:04:42.589Z,0
2018-05-12T03:05:44.587Z,0
2018-05-12T03:06:46.585Z,0
2018-05-12T03:07:48.579Z,0
2018-05-12T03:08:50.888Z,0
2018-05-12T03:09:53.551Z,0
2018-05-12T03:10:56.245Z,0
2018-05-12T03:11:58.240Z,1
2018-05-12T03:13:00.233Z,1
2018-05-12T03:14:03.212Z,1
2018-05-12T03:15:05.215Z,1
2018-05-12T03:16:07.215Z,1
2018-05-12T03:17:09.208Z,1
2018-05-12T03:18:11.476Z,1
2018-05-12T03:19:13.470Z,1
2018-05-12T03:20:15.459Z,1
2018-05-12T03:21:17.453Z,2
2018-05-12T03:22:19.447Z,2
2018-05-12T03:23:21.448Z,2
2018-05-12T03:24:23.440Z,2
2018-05-12T03:25:25.421Z,2
2018-05-12T03:26:27.417Z,2
2018-05-12T03:27:30.185Z,3
2018-05-12T03:28:32.181Z,3
2018-05-12T03:29:34.169Z,3
2018-05-12T03:30:36.435Z,3
2018-05-12T03:31:38.442Z,4
2018-05-12T03:32:40.416Z,4
2018-05-12T03:33:42.406Z,4
2018-05-12T03:34:44.406Z,4
2018-05-12T03:35:46.425Z,4
2018-05-12T03:36:48.398Z,5
2018-05-12T03:37:50.395Z,5
2018-05-12T03:38:52.385Z,5
2018-05-12T03:39:54.389Z,5
2018-05-12T03:40:56.378Z,6
2018-05-12T03:41:58.369Z,6
2018-05-12T03:43:00.754Z,6
2018-05-12T03:44:02.746Z,6
2018-05-12T03:45:04.740Z,7
2018-05-12T03:46:07.116Z,7
2018-05-12T03:47:09.400Z,7
2018-05-12T03:48:11.404Z,8
2018-05-12T03:49:13.392Z,8
2018-05-12T03:50:15.391Z,8
2018-05-12T03:51:17.378Z,8
2018-05-12T03:52:19.369Z,9
2018-05-12T03:53:21.637Z,9
2018-05-12T03:54:23.631Z,9
2018-05-12T03:55:25.624Z,10
2018-05-12T03:56:27.631Z,10
2018-05-12T03:57:29.923Z,10
2018-05-12T03:58:31.929Z,10
2018-05-12T03:59:33.913Z,11
2018-05-12T04:00:35.911Z,11
2018-05-12T04:01:38.289Z,11
2018-05-12T04:02:40.566Z,12
2018-05-12T04:03:42.564Z,12
2018-05-12T04:04:44.557Z,12
2018-05-12T04:05:46.551Z,13
2018-05-12T04:06:48.848Z,13
2018-05-12T04:07:51.212Z,13
2018-05-12T04:08:53.494Z,14
2018-05-12T04:09:55.480Z,14
2018-05-12T04:10:57.478Z,14
2018-05-12T04:11:59.497Z,14
2018-05-12T04:13:01.467Z,15
2018-05-12T04:14:03.458Z,15
2018-05-12T04:15:05.461Z,15
2018-05-12T04:16:07.450Z,16
2018-05-12T04:17:09.445Z,16
2018-05-12T04:18:11.444Z,16
2018-05-12T04:19:13.725Z,17
2018-05-12T04:20:16.013Z,17
2018-05-12T04:21:18.014Z,17
2018-05-12T04:22:20.268Z,17
2018-05-12T04:23:22.548Z,18
2018-05-12T04:24:24.830Z,18
2018-05-12T04:25:26.830Z,18
2018-05-12T04:26:28.838Z,18
2018-05-12T04:27:30.828Z,18
2018-05-12T04:28:32.830Z,18
2018-05-12T04:29:34.821Z,19
2018-05-12T04:30:36.815Z,19
2018-05-12T04:31:39.151Z,19
2018-05-12T04:32:41.103Z,19
2018-05-12T04:33:43.093Z,20
2018-05-12T04:34:45.093Z,20
2018-05-12T04:35:47.089Z,20
2018-05-12T04:36:49.082Z,21
2018-05-12T04:37:51.073Z,21
2018-05-12T04:38:53.071Z,21
2018-05-12T04:39:55.453Z,22
2018-05-12T04:40:57.442Z,22
2018-05-12T04:41:59.442Z,22
2018-05-12T04:43:01.723Z,22
2018-05-12T04:44:03.714Z,23
2018-05-12T04:45:05.706Z,23
2018-05-12T04:46:07.696Z,23
2018-05-12T04:47:09.986Z,24
2018-05-12T04:48:11.970Z,24
2018-05-12T04:49:13.963Z,24
2018-05-12T04:50:15.971Z,24
2018-05-12T04:51:17.964Z,25
2018-05-12T04:52:19.964Z,25
2018-05-12T04:53:21.963Z,25
2018-05-12T04:54:24.231Z,25
2018-05-12T04:55:26.245Z,26
2018-05-12T04:56:28.245Z,26
2018-05-12T04:57:30.240Z,26
2018-05-12T04:58:32.233Z,27
2018-05-12T04:59:34.229Z,27
2018-05-12T05:00:36.221Z,28
2018-05-12T05:01:38.213Z,28
2018-05-12T05:02:40.502Z,28
2018-05-12T05:03:42.502Z,30
2018-05-12T05:04:44.489Z,29
2018-05-12T05:05:46.485Z,29
2018-05-12T05:06:48.482Z,30
2018-05-12T05:07:50.477Z,30
2018-05-12T05:08:52.753Z,30
2018-05-12T05:09:55.027Z,31
2018-05-12T05:10:57.034Z,31
2018-05-12T05:11:59.319Z,31
2018-05-12T05:13:01.610Z,32
2018-05-12T05:14:03.612Z,31
2018-05-12T05:15:05.603Z,32
2018-05-12T05:16:07.594Z,33
2018-05-12T05:17:09.593Z,32
2018-05-12T05:18:11.586Z,32
2018-05-12T05:19:13.584Z,33
2018-05-12T05:20:15.578Z,33
2018-05-12T05:21:17.972Z,33
2018-05-12T05:22:19.964Z,33
2018-05-12T05:23:22.225Z,33
2018-05-12T05:24:24.223Z,33
2018-05-12T05:25:26.217Z,33
2018-05-12T05:26:28.212Z,33
2018-05-12T05:27:30.205Z,34
2018-05-12T05:28:32.579Z,34
2018-05-12T05:29:34.577Z,34
2018-05-12T05:30:36.581Z,34
2018-05-12T05:31:38.574Z,34
2018-05-12T05:32:40.573Z,34
2018-05-12T05:33:42.570Z,34
2018-05-12T05:34:44.567Z,34
2018-05-12T05:35:46.575Z,35
2018-05-12T05:36:48.578Z,35
2018-05-12T05:37:50.863Z,35
2018-05-12T05:38:53.243Z,35
2018-05-12T05:39:55.252Z,36
2018-05-12T05:40:57.524Z,36
2018-05-12T05:41:59.908Z,36
2018-05-12T05:43:01.911Z,36
2018-05-12T05:44:04.188Z,37
2018-05-12T05:45:06.173Z,37
2018-05-12T05:46:08.457Z,37
2018-05-12T05:47:10.452Z,37
2018-05-12T05:48:12.460Z,38
2018-05-12T05:49:14.753Z,38
2018-05-12T05:50:16.804Z,38
2018-05-12T05:51:19.424Z,39
2018-05-12T05:52:21.421Z,39
2018-05-12T05:53:23.420Z,39
2018-05-12T05:54:25.429Z,40
2018-05-12T05:55:27.418Z,40
2018-05-12T05:56:29.419Z,41
2018-05-12T05:57:31.420Z,41
2018-05-12T05:58:33.470Z,41
2018-05-12T05:59:35.432Z,42
2018-05-12T06:00:37.435Z,42
2018-05-12T06:01:39.437Z,42
2018-05-12T06:02:41.452Z,43
2018-05-12T06:03:43.428Z,43
2018-05-12T06:04:45.432Z,44
2018-05-12T06:05:48.093Z,44
2018-05-12T06:06:51.237Z,44
2018-05-12T06:07:53.218Z,45
2018-05-12T06:08:55.217Z,45
2018-05-12T06:09:57.219Z,46
2018-05-12T06:10:59.213Z,46
2018-05-12T06:12:01.504Z,46
2018-05-12T06:13:03.502Z,47
2018-05-12T06:14:05.778Z,47
2018-05-12T06:15:07.782Z,48
2018-05-12T06:16:09.776Z,48
2018-05-12T06:17:11.772Z,49
2018-05-12T06:18:14.199Z,49
2018-05-12T06:19:16.193Z,49
2018-05-12T06:20:18.487Z,50
2018-05-12T06:21:20.775Z,50
2018-05-12T06:22:22.775Z,51
2018-05-12T06:23:25.155Z,51
2018-05-12T06:24:27.433Z,52
2018-05-12T06:25:29.451Z,52
2018-05-12T06:26:31.453Z,52
2018-05-12T06:27:33.443Z,52
2018-05-12T06:28:35.444Z,53
2018-05-12T06:29:37.730Z,53
2018-05-12T06:30:39.722Z,53
2018-05-12T06:31:41.728Z,54
2018-05-12T06:32:43.723Z,54
2018-05-12T06:33:45.998Z,54
2018-05-12T06:34:47.990Z,55
2018-05-12T06:35:49.998Z,55
2018-05-12T06:36:52.037Z,56
2018-05-12T06:37:54.009Z,56
2018-05-12T06:38:56.013Z,57
2018-05-12T06:39:58.011Z,57
2018-05-12T06:41:00.007Z,58
2018-05-12T06:42:02.011Z,58
2018-05-12T06:43:04.013Z,59
2018-05-12T06:44:06.031Z,59
2018-05-12T06:45:08.029Z,59
2018-05-12T06:46:10.023Z,59
2018-05-12T06:47:12.023Z,59
2018-05-12T06:48:14.306Z,59
2018-05-12T06:49:16.622Z,61
2018-05-12T06:50:18.646Z,60
2018-05-12T06:51:21.011Z,61
2018-05-12T06:52:23.010Z,61
2018-05-12T06:53:25.309Z,62
2018-05-12T06:54:27.309Z,63
2018-05-12T06:55:29.302Z,62
2018-05-12T06:56:31.689Z,63
2018-05-12T06:57:33.689Z,63
2018-05-12T06:58:35.677Z,63
2018-05-12T06:59:38.057Z,63
2018-05-12T07:00:40.349Z,64
2018-05-12T07:01:42.343Z,65
2018-05-12T07:02:44.345Z,66
2018-05-12T07:03:46.344Z,67
2018-05-12T07:04:48.728Z,68
2018-05-12T07:05:50.733Z,68
2018-05-12T07:06:52.726Z,68
2018-05-12T07:07:54.729Z,68
2018-05-12T07:08:56.722Z,70
2018-05-12T07:09:58.715Z,72
2018-05-12T07:11:01.095Z,70
2018-05-12T07:12:03.100Z,69
2018-05-12T07:13:05.113Z,68
2018-05-12T07:14:07.118Z,68
2018-05-12T07:15:09.417Z,68
2018-05-12T07:16:11.775Z,70
2018-05-12T07:17:13.818Z,70
2018-05-12T07:18:15.946Z,70
2018-05-12T07:19:17.982Z,71
2018-05-12T07:20:19.966Z,71
2018-05-12T07:21:22.013Z,72
2018-05-12T07:22:24.049Z,73
2018-05-12T07:23:26.123Z,72
2018-05-12T07:24:28.600Z,72
2018-05-12T07:25:30.711Z,73
2018-05-12T07:26:32.744Z,73
2018-05-12T07:27:34.837Z,74
2018-05-12T07:28:37.520Z,74
2018-05-12T07:29:39.672Z,73
2018-05-12T07:30:41.967Z,74
2018-05-12T07:31:44.088Z,74
2018-05-12T07:32:46.190Z,79
2018-05-12T07:33:48.266Z,87
2018-05-12T07:34:50.297Z,92
2018-05-12T07:35:52.386Z,91
2018-05-12T07:36:54.461Z,93
2018-05-12T07:37:56.511Z,93
2018-05-12T07:38:58.700Z,94
2018-05-12T07:40:00.659Z,97
2018-05-12T07:41:02.815Z,90
2018-05-12T07:42:04.790Z,91
2018-05-12T07:43:06.894Z,93
2018-05-12T07:44:08.946Z,90
2018-05-12T07:45:10.985Z,86
2018-05-12T07:46:13.085Z,88
2018-05-12T07:47:15.223Z,91
2018-05-12T07:48:17.276Z,92
2018-05-12T07:49:19.315Z,90
2018-05-12T07:50:21.363Z,87
2018-05-12T07:51:23.430Z,93
2018-05-12T07:52:26.039Z,104
2018-05-12T07:53:28.238Z,112
2018-05-12T07:54:30.284Z,110
2018-05-12T07:55:32.624Z,104
2018-05-12T07:56:34.669Z,93
2018-05-12T07:57:36.700Z,89
2018-05-12T07:58:38.762Z,100
2018-05-12T07:59:40.811Z,109
2018-05-12T08:00:42.966Z,112
2018-05-12T08:01:45.369Z,109
2018-05-12T08:02:47.812Z,106
2018-05-12T08:03:49.876Z,105
2018-05-12T08:04:52.534Z,112
2018-05-12T08:05:55.143Z,125
2018-05-12T08:06:57.181Z,131
2018-05-12T08:07:59.507Z,125
2018-05-12T08:09:01.563Z,120
2018-05-12T08:10:03.730Z,122
2018-05-12T08:11:05.784Z,120
2018-05-12T08:12:08.521Z,125
2018-05-12T08:13:12.222Z,122
2018-05-12T08:14:15.445Z,115
2018-05-12T08:15:18.717Z,125
2018-05-12T08:16:23.815Z,135
2018-05-12T08:17:27.187Z,149
2018-05-12T08:18:31.347Z,149
2018-05-12T08:19:34.755Z,149
2018-05-12T08:20:36.814Z,141
2018-05-12T08:21:38.849Z,154
2018-05-12T08:22:41.508Z,166
2018-05-12T08:23:43.778Z,198
2018-05-12T08:24:46.111Z,226
2018-05-12T08:25:48.200Z,378
2018-05-12T08:26:50.308Z,410
2018-05-12T08:27:52.305Z,416
2018-05-12T08:28:54.364Z,424
2018-05-12T08:29:56.631Z,445
2018-05-12T08:30:58.739Z,408
2018-05-12T08:32:00.789Z,431
2018-05-12T08:33:03.116Z,287
2018-05-12T08:34:05.456Z,421
2018-05-12T08:35:08.348Z,420
2018-05-12T08:36:10.973Z,446
2018-05-12T08:37:13.315Z,403
2018-05-12T08:38:15.691Z,430
2018-05-12T08:39:18.191Z,453
2018-05-12T08:40:20.366Z,347
2018-05-12T08:41:22.362Z,414
2018-05-12T08:42:24.412Z,427
2018-05-12T08:43:26.760Z,418
2018-05-12T08:44:28.800Z,428
2018-05-12T08:45:30.989Z,486
2018-05-12T08:46:33.070Z,518
2018-05-12T08:47:35.115Z,533
2018-05-12T08:48:37.163Z,533
2018-05-12T08:49:39.215Z,550
2018-05-12T08:50:41.556Z,536
2018-05-12T08:51:44.418Z,513
2018-05-12T08:52:46.474Z,467
2018-05-12T08:53:48.806Z,356
2018-05-12T08:54:51.135Z,360
2018-05-12T08:55:53.179Z,419
2018-05-12T08:56:55.233Z,172
2018-05-12T08:57:57.356Z,160
2018-05-12T08:58:59.389Z,150
2018-05-12T09:00:01.743Z,323
2018-05-12T09:01:03.791Z,317
2018-05-12T09:02:05.843Z,325
2018-05-12T09:03:08.259Z,379
2018-05-12T09:04:10.436Z,425
2018-05-12T09:05:12.668Z,425
2018-05-12T09:06:14.982Z,363
2018-05-12T09:07:17.249Z,375
2018-05-12T09:08:19.561Z,464
2018-05-12T09:09:21.605Z,497
2018-05-12T09:10:23.648Z,445
2018-05-12T09:11:25.700Z,471
2018-05-12T09:12:27.754Z,519
2018-05-12T09:13:29.797Z,513
2018-05-12T09:14:31.850Z,516
2018-05-12T09:15:33.903Z,506
2018-05-12T09:16:35.942Z,516
2018-05-12T09:17:38.281Z,488
2018-05-12T09:18:40.321Z,490
2018-05-12T09:19:42.482Z,480
2018-05-12T09:20:44.541Z,489
2018-05-12T09:21:47.023Z,492
2018-05-12T09:22:49.077Z,465
2018-05-12T09:23:51.117Z,445
2018-05-12T09:24:53.187Z,477
2018-05-12T09:25:55.840Z,334
2018-05-12T09:26:57.888Z,500
2018-05-12T09:27:59.935Z,593
2018-05-12T09:29:01.991Z,558
2018-05-12T09:30:04.330Z,541
2018-05-12T09:31:06.378Z,516
2018-05-12T09:32:08.482Z,529
2018-05-12T09:33:10.983Z,544
2018-05-12T09:34:13.544Z,518
2018-05-12T09:35:16.088Z,183
2018-05-12T09:36:18.420Z,228
2018-05-12T09:37:20.845Z,524
2018-05-12T09:38:22.941Z,533
2018-05-12T09:39:25.026Z,551
2018-05-12T09:40:27.067Z,379
2018-05-12T09:41:29.120Z,545
2018-05-12T09:42:31.323Z,574
2018-05-12T09:43:33.219Z,598
2018-05-12T09:44:35.278Z,603
2018-05-12T09:45:37.333Z,592
2018-05-12T09:46:39.373Z,551
2018-05-12T09:47:41.428Z,179
2018-05-12T09:48:43.481Z,324
2018-05-12T09:49:45.532Z,603
2018-05-12T09:50:47.588Z,609
2018-05-12T09:51:49.922Z,547
2018-05-12T09:52:52.009Z,561
2018-05-12T09:53:54.379Z,551
2018-05-12T09:54:56.624Z,542
2018-05-12T09:55:58.706Z,560
2018-05-12T09:57:00.761Z,531
2018-05-12T09:58:03.194Z,611
2018-05-12T09:59:05.636Z,588
2018-05-12T10:00:07.690Z,190
2018-05-12T10:01:09.750Z,175
2018-05-12T10:02:12.180Z,194
2018-05-12T10:03:14.234Z,600
2018-05-12T10:04:16.279Z,559
2018-05-12T10:05:18.346Z,574
2018-05-12T10:06:20.971Z,184
2018-05-12T10:07:23.022Z,160
2018-05-12T10:08:25.119Z,501
2018-05-12T10:09:27.249Z,495
2018-05-12T10:10:29.540Z,550
2018-05-12T10:11:31.633Z,509
2018-05-12T10:12:33.714Z,514
2018-05-12T10:13:35.776Z,555
2018-05-12T10:14:38.106Z,516
2018-05-12T10:15:40.160Z,509
2018-05-12T10:16:42.211Z,545
2018-05-12T10:17:44.255Z,548
2018-05-12T10:18:46.596Z,531
2018-05-12T10:19:48.663Z,516
2018-05-12T10:20:50.723Z,577
2018-05-12T10:21:52.775Z,185
2018-05-12T10:22:54.830Z,159
2018-05-12T10:23:56.905Z,144
2018-05-12T10:24:59.462Z,148
2018-05-12T10:26:01.599Z,164
2018-05-12T10:27:03.951Z,342
2018-05-12T10:28:06.003Z,524
2018-05-12T10:29:08.050Z,518
2018-05-12T10:30:10.103Z,594
2018-05-12T10:31:12.163Z,532
2018-05-12T10:32:14.602Z,546
2018-05-12T10:33:16.660Z,514
2018-05-12T10:34:19.091Z,511
2018-05-12T10:35:21.146Z,536
2018-05-12T10:36:23.810Z,583
2018-05-12T10:37:26.171Z,571
2018-05-12T10:38:28.479Z,568
2018-05-12T10:39:30.859Z,594
2018-05-12T10:40:33.010Z,569
2018-05-12T10:41:35.104Z,541
2018-05-12T10:42:37.151Z,612
2018-05-12T10:43:39.886Z,589
2018-05-12T10:44:41.988Z,558
2018-05-12T10:45:43.985Z,650
2018-05-12T10:46:46.442Z,621
2018-05-12T10:47:48.496Z,545
2018-05-12T10:48:50.547Z,523
2018-05-12T10:49:52.597Z,201
2018-05-12T10:50:54.652Z,310
2018-05-12T10:51:56.749Z,213
2018-05-12T10:52:59.098Z,187
2018-05-12T10:54:01.665Z,593
2018-05-12T10:55:04.391Z,552
2018-05-12T10:56:06.740Z,593
2018-05-12T10:57:08.881Z,623
2018-05-12T10:58:10.930Z,539
2018-05-12T10:59:12.982Z,579
2018-05-12T11:00:15.050Z,597
2018-05-12T11:01:17.869Z,548
2018-05-12T11:02:19.914Z,554
2018-05-12T11:03:21.967Z,547
2018-05-12T11:04:24.012Z,587
2018-05-12T11:05:26.066Z,597
2018-05-12T11:06:28.081Z,608
2018-05-12T11:07:30.091Z,612
2018-05-12T11:08:32.369Z,616
2018-05-12T11:09:34.482Z,632
2018-05-12T11:10:36.491Z,615
2018-05-12T11:11:38.676Z,584
2018-05-12T11:12:40.701Z,609
2018-05-12T11:13:42.953Z,618
2018-05-12T11:14:44.956Z,618
2018-05-12T11:15:47.744Z,667
2018-05-12T11:16:49.942Z,622
2018-05-12T11:17:52.046Z,616
2018-05-12T11:18:54.327Z,599
2018-05-12T11:19:56.378Z,611
2018-05-12T11:20:59.156Z,605
2018-05-12T11:22:01.604Z,580
2018-05-12T11:23:04.390Z,565
2018-05-12T11:24:06.418Z,520
2018-05-12T11:25:09.180Z,497
2018-05-12T11:26:11.214Z,573
2018-05-12T11:27:13.227Z,633
2018-05-12T11:28:15.251Z,621
2018-05-12T11:29:17.264Z,656
2018-05-12T11:30:19.607Z,346
2018-05-12T11:31:21.627Z,219
2018-05-12T11:32:23.644Z,169
2018-05-12T11:33:25.662Z,182
2018-05-12T11:34:27.675Z,174
2018-05-12T11:35:29.704Z,261
2018-05-12T11:36:31.998Z,231
2018-05-12T11:37:34.019Z,571
2018-05-12T11:38:36.063Z,520
2018-05-12T11:39:38.668Z,537
2018-05-12T11:40:40.695Z,500
2018-05-12T11:41:42.704Z,500
2018-05-12T11:42:44.715Z,588
2018-05-12T11:43:46.739Z,599
2018-05-12T11:44:48.825Z,616
2018-05-12T11:45:50.764Z,620
2018-05-12T11:46:52.781Z,582
2018-05-12T11:47:54.801Z,602
2018-05-12T11:48:56.816Z,609
2018-05-12T11:49:58.828Z,561
2018-05-12T11:51:00.849Z,510
2018-05-12T11:52:02.873Z,509
2018-05-12T11:53:04.885Z,529
2018-05-12T11:54:06.914Z,503
2018-05-12T11:55:08.914Z,510
2018-05-12T11:56:10.926Z,499
2018-05-12T11:57:12.938Z,566
2018-05-12T11:58:15.328Z,596
2018-05-12T11:59:17.256Z,553
2018-05-12T12:00:19.282Z,509
2018-05-12T12:01:21.672Z,525
2018-05-12T12:02:23.724Z,510
2018-05-12T12:03:26.333Z,474
2018-05-12T12:04:28.345Z,363
2018-05-12T12:05:30.368Z,454
2018-05-12T12:06:32.372Z,566
2018-05-12T12:07:34.391Z,597
2018-05-12T12:08:36.422Z,489
2018-05-12T12:09:38.430Z,353
2018-05-12T12:10:40.441Z,207
2018-05-12T12:11:42.449Z,213
2018-05-12T12:12:45.025Z,275
2018-05-12T12:13:47.040Z,491
2018-05-12T12:14:49.050Z,474
2018-05-12T12:15:51.078Z,502
2018-05-12T12:16:53.097Z,547
2018-05-12T12:17:55.501Z,579
2018-05-12T12:18:57.513Z,499
2018-05-12T12:19:59.911Z,288
2018-05-12T12:21:01.925Z,177
2018-05-12T12:22:04.225Z,185
2018-05-12T12:23:06.240Z,256
2018-05-12T12:24:08.253Z,176
2018-05-12T12:25:10.652Z,154
2018-05-12T12:26:12.667Z,151
2018-05-12T12:27:14.689Z,157
2018-05-12T12:28:17.099Z,167
2018-05-12T12:29:19.399Z,159
2018-05-12T12:30:21.415Z,209
2018-05-12T12:31:23.429Z,242
2018-05-12T12:32:25.453Z,359
2018-05-12T12:33:27.927Z,526
2018-05-12T12:34:29.938Z,507
2018-05-12T12:35:32.338Z,522
2018-05-12T12:36:34.635Z,570
2018-05-12T12:37:36.656Z,306
2018-05-12T12:38:38.669Z,160
2018-05-12T12:39:40.686Z,161
2018-05-12T12:40:42.697Z,155
2018-05-12T12:41:44.697Z,156
2018-05-12T12:42:46.719Z,153
2018-05-12T12:43:48.724Z,154
2018-05-12T12:44:50.737Z,152
2018-05-12T12:45:52.749Z,160
2018-05-12T12:46:55.046Z,228
2018-05-12T12:47:57.066Z,447
2018-05-12T12:48:59.077Z,162
2018-05-12T12:50:01.095Z,151
2018-05-12T12:51:03.105Z,160
2018-05-12T12:52:05.118Z,202
2018-05-12T12:53:07.136Z,520
2018-05-12T12:54:09.151Z,498
2018-05-12T12:55:11.442Z,587
2018-05-12T12:56:13.470Z,521
2018-05-12T12:57:15.472Z,500
2018-05-12T12:58:18.379Z,480
2018-05-12T12:59:20.333Z,488
2018-05-12T13:00:23.008Z,488
2018-05-12T13:01:25.021Z,483
2018-05-12T13:02:27.036Z,442
2018-05-12T13:03:29.052Z,424
2018-05-12T13:04:31.069Z,467
2018-05-12T13:05:33.073Z,485
2018-05-12T13:06:35.090Z,454
2018-05-12T13:07:37.419Z,445
2018-05-12T13:08:39.720Z,485
2018-05-12T13:09:41.733Z,510
2018-05-12T13:10:44.084Z,464
2018-05-12T13:11:46.152Z,415
2018-05-12T13:12:48.590Z,418
2018-05-12T13:13:50.948Z,430
2018-05-12T13:14:53.013Z,455
2018-05-12T13:15:55.076Z,447
2018-05-12T13:16:57.129Z,434
2018-05-12T13:17:59.189Z,450
2018-05-12T13:19:01.532Z,431
2018-05-12T13:20:03.862Z,408
2018-05-12T13:21:05.927Z,421
2018-05-12T13:22:08.392Z,411
2018-05-12T13:23:10.393Z,433
2018-05-12T13:24:12.447Z,407
2018-05-12T13:25:14.506Z,386
2018-05-12T13:26:16.564Z,407
2018-05-12T13:27:18.632Z,435
2018-05-12T13:28:20.692Z,444
2018-05-12T13:29:23.062Z,511
2018-05-12T13:30:25.121Z,497
2018-05-12T13:31:27.162Z,454
2018-05-12T13:32:29.308Z,448
2018-05-12T13:33:31.646Z,435
2018-05-12T13:34:33.654Z,403
2018-05-12T13:35:35.711Z,398
2018-05-12T13:36:37.772Z,391
2018-05-12T13:37:39.836Z,427
2018-05-12T13:38:41.878Z,444
2018-05-12T13:39:43.938Z,454
2018-05-12T13:40:46.008Z,437
2018-05-12T13:41:48.088Z,424
2018-05-12T13:42:50.420Z,394
2018-05-12T13:43:52.763Z,436
2018-05-12T13:44:54.831Z,401
2018-05-12T13:45:56.902Z,384
2018-05-12T13:46:58.968Z,407
2018-05-12T13:48:01.029Z,327
2018-05-12T13:49:03.491Z,277
2018-05-12T13:50:05.566Z,214
2018-05-12T13:51:08.032Z,265
2018-05-12T13:52:10.493Z,306
2018-05-12T13:53:12.553Z,286
2018-05-12T13:54:14.620Z,222
2018-05-12T13:55:16.670Z,311
2018-05-12T13:56:18.730Z,409
2018-05-12T13:57:20.803Z,374
2018-05-12T13:58:22.859Z,385
2018-05-12T13:59:24.921Z,401
2018-05-12T14:00:26.987Z,373
2018-05-12T14:01:29.050Z,252
2018-05-12T14:02:31.115Z,214
2018-05-12T14:03:33.458Z,349
2018-05-12T14:04:35.536Z,182
2018-05-12T14:05:37.595Z,158
2018-05-12T14:06:39.662Z,155
2018-05-12T14:07:41.724Z,198
2018-05-12T14:08:43.789Z,363
2018-05-12T14:09:46.239Z,319
2018-05-12T14:10:48.307Z,246
2018-05-12T14:11:50.363Z,362
2018-05-12T14:12:52.430Z,175
2018-05-12T14:13:54.486Z,171
2018-05-12T14:14:56.550Z,361
2018-05-12T14:15:58.614Z,353
2018-05-12T14:17:00.676Z,378
2018-05-12T14:18:02.736Z,346
2018-05-12T14:19:05.693Z,260
2018-05-12T14:20:07.714Z,202
2018-05-12T14:21:10.058Z,164
2018-05-12T14:22:12.116Z,163
2018-05-12T14:23:14.559Z,138
2018-05-12T14:24:16.626Z,139
2018-05-12T14:25:18.682Z,144
2018-05-12T14:26:20.772Z,134
2018-05-12T14:27:22.805Z,137
2018-05-12T14:28:24.852Z,144
2018-05-12T14:29:26.913Z,179
2018-05-12T14:30:28.979Z,306
2018-05-12T14:31:31.030Z,269
2018-05-12T14:32:33.377Z,160
2018-05-12T14:33:35.720Z,259
2018-05-12T14:34:37.778Z,317
2018-05-12T14:35:39.830Z,217
2018-05-12T14:36:41.890Z,160
2018-05-12T14:37:43.967Z,154
2018-05-12T14:38:46.027Z,183
2018-05-12T14:39:48.396Z,284